Time;durP1;ratioP1;P1;durP2;ratioP2;P2;SDS_P1;SDS_P2;PMS_P1;PMS_P2;Temp;Humidity;BMP_temperature;BMP_pressure;BME280_temperature;BME280_humidity;BME280_pressure;Samples;Min_cycle;Max_cycle;Signal;HPM_P1;HPM_P2
2022/06/23 00:00:32;;;;;;;4.33;2.58;;;;;;;14.04;100.00;145705.31;1824002;78;21025;-56
2022/06/23 00:03:02;;;;;;;4.60;2.25;;;;;;;14.02;100.00;145701.56;1824102;79;21522;-57
2022/06/23 00:05:39;;;;;;;7.75;2.52;;;;;;;13.99;100.00;145694.03;1824058;79;20988;-57
2022/06/23 00:08:11;;;;;;;5.15;2.80;;;;;;;14.04;100.00;145705.31;1823684;78;20993;-57
2022/06/23 00:10:50;;;;;;;3.85;2.30;;;;;;;14.08;100.00;145716.63;1824074;78;21051;-57
2022/06/23 00:13:36;;;;;;;5.60;2.65;;;;;;;14.11;100.00;145722.92;1823945;78;21514;-56
2022/06/23 00:16:08;;;;;;;4.60;2.65;;;;;;;14.08;100.00;145716.63;1824158;78;20977;-57
2022/06/23 00:18:37;;;;;;;4.10;2.30;;;;;;;14.07;100.00;145714.14;1821155;79;21017;-57
2022/06/23 00:21:18;;;;;;;4.62;3.10;;;;;;;14.06;100.00;145711.59;1824077;79;20989;-56
2022/06/23 00:23:48;;;;;;;;;;;;;;;14.06;100.00;145711.59;1826160;78;21032;-57
2022/06/23 00:26:22;;;;;;;8.20;2.50;;;;;;;14.07;100.00;145714.14;1823996;78;20101;-57
2022/06/23 00:28:58;;;;;;;4.75;2.50;;;;;;;14.07;100.00;145714.14;1824204;79;21505;-56
2022/06/23 00:31:37;;;;;;;6.85;2.87;;;;;;;14.08;100.00;145716.63;1823967;79;20997;-56
2022/06/23 00:34:24;;;;;;;7.15;2.83;;;;;;;14.10;100.00;145720.42;1823693;79;21021;-56
2022/06/23 00:37:02;;;;;;;5.90;2.95;;;;;;;14.14;100.00;145729.22;1823907;78;21152;-57
2022/06/23 00:39:58;;;;;;;9.63;3.25;;;;;;;14.15;100.00;145731.75;1823815;78;21075;-56
2022/06/23 00:42:43;;;;;;;6.35;3.02;;;;;;;14.15;100.00;145731.75;1823930;79;21029;-58
2022/06/23 00:45:21;;;;;;;7.12;3.22;;;;;;;14.16;100.00;145735.50;1789212;80;21588;-58
2022/06/23 00:48:16;;;;;;;5.50;3.10;;;;;;;14.15;100.00;145731.75;1805563;79;21526;-57
2022/06/23 00:51:11;;;;;;;8.03;3.00;;;;;;;14.15;100.00;145731.75;1784905;79;21493;-56
2022/06/23 00:53:55;;;;;;;5.87;3.42;;;;;;;14.12;100.00;145725.47;1823751;79;21069;-56
2022/06/23 00:56:34;;;;;;;6.65;2.90;;;;;;;14.14;100.00;145729.22;1808393;78;21033;-56
2022/06/23 00:59:27;;;;;;;4.80;3.00;;;;;;;14.13;100.00;145726.72;1823165;79;21154;-57
2022/06/23 01:01:59;;;;;;;7.53;3.50;;;;;;;14.17;100.00;145736.75;1791475;80;21020;-56
2022/06/23 01:04:59;;;;;;;8.28;3.58;;;;;;;14.19;100.00;145743.03;1791722;79;21021;-57
2022/06/23 01:07:54;;;;;;;7.45;3.77;;;;;;;14.13;100.00;145726.72;1791472;79;21067;-57
2022/06/23 01:10:43;;;;;;;4.37;3.02;;;;;;;14.09;100.00;145719.19;1791143;80;21005;-56
2022/06/23 01:13:44;;;;;;;5.83;3.00;;;;;;;14.02;100.00;145700.31;1816254;79;21033;-56
2022/06/23 01:16:35;;;;;;;6.20;3.00;;;;;;;13.94;100.00;145681.41;1824057;79;20998;-57
2022/06/23 01:19:23;;;;;;;6.37;3.10;;;;;;;13.90;100.00;145671.37;1773525;79;21041;-57
2022/06/23 01:21:57;;;;;;;8.45;3.50;;;;;;;13.87;100.00;145665.09;1823771;78;21061;-58
2022/06/23 01:24:38;;;;;;;5.45;3.40;;;;;;;13.82;100.00;145651.27;1823744;78;21216;-57
2022/06/23 01:27:46;;;;;;;9.15;3.58;;;;;;;13.76;100.00;145636.14;1823922;78;21064;-57
2022/06/23 01:30:13;;;;;;;6.87;4.12;;;;;;;13.68;100.00;145618.53;1823710;78;20993;-58
2022/06/23 01:33:14;;;;;;;7.87;3.85;;;;;;;13.62;100.00;145603.47;1823944;78;21478;-57
2022/06/23 01:35:49;;;;;;;6.90;4.28;;;;;;;13.59;100.00;145595.94;1823806;79;21083;-58
2022/06/23 01:38:44;;;;;;;8.68;4.55;;;;;;;13.58;100.00;145593.39;1823654;78;21032;-58
2022/06/23 01:41:39;;;;;;;17.35;5.17;;;;;;;13.58;100.00;145593.39;1824037;78;21001;-57
2022/06/23 01:44:17;;;;;;;7.37;4.33;;;;;;;13.58;100.00;145593.39;1823765;78;21099;-57
2022/06/23 01:46:48;;;;;;;8.38;4.00;;;;;;;13.57;100.00;145590.89;1821173;79;21506;-57
2022/06/23 01:49:26;;;;;;;6.03;4.12;;;;;;;13.58;100.00;145592.14;1823935;78;21502;-57
2022/06/23 01:52:04;;;;;;;7.05;4.22;;;;;;;13.63;100.00;145605.97;1823519;79;21001;-56
2022/06/23 01:54:33;;;;;;;7.15;3.70;;;;;;;13.67;100.00;145614.80;1823089;78;21076;-57
2022/06/23 01:57:31;;;;;;;7.37;3.83;;;;;;;13.70;100.00;145621.08;1793520;79;21483;-58
2022/06/23 02:00:17;;;;;;;7.62;3.75;;;;;;;13.73;100.00;145628.61;1819252;79;21497;-58
2022/06/23 02:02:52;;;;;;;7.92;3.90;;;;;;;13.73;100.00;145628.61;1819527;79;21017;-57
2022/06/23 02:05:33;;;;;;;10.38;4.40;;;;;;;13.75;100.00;145634.91;1819200;79;21550;-56
2022/06/23 02:08:18;;;;;;;7.30;4.00;;;;;;;13.75;100.00;145634.91;1819185;78;21565;-57
2022/06/23 02:11:19;;;;;;;8.48;4.22;;;;;;;13.79;100.00;145643.69;1818076;79;21021;-57
2022/06/23 02:14:17;;;;;;;7.80;4.33;;;;;;;13.83;100.00;145653.77;1819395;79;20998;-58
2022/06/23 02:17:15;;;;;;;7.83;3.75;;;;;;;13.85;100.00;145660.05;1741675;80;21522;-56
2022/06/23 02:19:58;;;;;;;8.88;4.30;;;;;;;13.85;100.00;145660.05;1797052;80;21078;-57
2022/06/23 02:22:42;;;;;;;7.17;4.33;;;;;;;13.86;100.00;145661.30;1819815;79;21512;-57
2022/06/23 02:25:26;;;;;;;8.30;3.83;;;;;;;13.86;100.00;145662.55;1819094;79;21563;-61
2022/06/23 02:28:39;;;;;;;9.38;4.30;;;;;;;13.86;100.00;145661.30;1819487;79;20988;-57
2022/06/23 02:31:37;;;;;;;6.67;3.92;;;;;;;13.86;100.00;145661.30;1819075;79;21016;-57
2022/06/23 02:34:36;;;;;;;10.43;3.77;;;;;;;13.88;100.00;145666.34;1819478;79;21066;-56
2022/06/23 02:37:45;;;;;;;10.85;3.70;;;;;;;13.92;100.00;145676.41;1818675;79;21030;-57
2022/06/23 02:40:21;;;;;;;9.98;4.33;;;;;;;13.95;100.00;145683.94;1819126;79;21025;-57
2022/06/23 02:43:16;;;;;;;7.20;3.65;;;;;;;13.99;100.00;145692.73;1819399;79;21519;-56
2022/06/23 02:46:12;;;;;;;8.18;3.52;;;;;;;14.02;100.00;145700.31;1819321;79;21474;-56
2022/06/23 02:49:19;;;;;;;7.87;3.77;;;;;;;14.07;100.00;145712.89;1818912;79;21554;-57
2022/06/23 02:52:13;;;;;;;7.60;4.17;;;;;;;14.09;100.00;145719.19;1819213;79;21033;-56
2022/06/23 02:55:03;;;;;;;8.80;4.17;;;;;;;14.09;100.00;145719.19;1800090;79;21538;-57
2022/06/23 02:58:00;;;;;;;8.05;4.37;;;;;;;14.13;100.00;145726.72;1815511;78;21520;-58
2022/06/23 03:00:50;;;;;;;7.25;4.00;;;;;;;14.17;100.00;145736.75;1700242;80;21507;-57
2022/06/23 03:03:37;;;;;;;6.85;3.83;;;;;;;14.19;100.00;145743.03;1788836;80;21047;-57
2022/06/23 03:06:22;;;;;;;9.08;3.80;;;;;;;14.21;100.00;145746.83;1788537;80;21055;-58
2022/06/23 03:09:20;;;;;;;6.85;3.62;;;;;;;14.25;100.00;145756.91;1788834;80;21019;-57
2022/06/23 03:12:02;;;;;;;7.97;3.45;;;;;;;14.25;100.00;145758.16;1794680;80;21045;-58
2022/06/23 03:14:48;;;;;;;5.17;3.25;;;;;;;14.28;100.00;145765.69;1818938;78;21040;-57
2022/06/23 03:17:36;;;;;;;6.40;3.70;;;;;;;14.30;100.00;145769.48;1827301;78;21080;-57
2022/06/23 03:20:51;;;;;;;5.30;3.30;;;;;;;14.35;100.00;145782.06;1827310;78;21016;-57
2022/06/23 03:23:46;;;;;;;8.43;4.60;;;;;;;14.41;100.00;145797.14;1826943;78;21497;-56
2022/06/23 03:26:27;;;;;;;8.13;3.20;;;;;;;14.46;100.00;145809.72;1827202;78;21025;-57
2022/06/23 03:28:59;;;;;;;7.45;3.60;;;;;;;14.50;100.00;145819.81;1826911;78;20974;-57
2022/06/23 03:31:41;;;;;;;5.70;3.65;;;;;;;14.55;100.00;145831.14;1827366;78;20965;-57
2022/06/23 03:34:30;;;;;;;8.98;3.62;;;;;;;14.59;100.00;145839.97;1827127;78;20997;-58
2022/06/23 03:37:05;;;;;;;10.28;3.52;;;;;;;14.62;100.00;145848.77;1826466;78;21053;-57
2022/06/23 03:43:21;;;;;;;9.33;3.60;;;;;;;14.65;100.00;145855.06;1826995;78;21001;-57
2022/06/23 03:45:54;;;;;;;6.80;3.10;;;;;;;14.69;100.00;145865.14;1827098;78;21065;-59
2022/06/23 03:48:35;;;;;;;6.80;3.52;;;;;;;14.72;100.00;145872.69;1827180;78;21001;-57
2022/06/23 03:51:22;;;;;;;5.53;3.60;;;;;;;14.76;100.00;145884.02;1827384;78;21521;-56
2022/06/23 03:54:05;;;;;;;7.80;3.40;;;;;;;14.79;100.00;145890.31;1827240;78;20997;-57
2022/06/23 03:56:57;;;;;;;10.43;3.70;;;;;;;14.82;100.00;145897.84;1825279;78;21060;-58
2022/06/23 03:59:35;;;;;;;5.33;3.20;;;;;;;14.86;100.00;145906.69;1780333;78;21043;-58
2022/06/23 04:02:16;;;;;;;6.47;3.83;;;;;;;14.90;100.00;145917.97;1788170;79;21035;-59
2022/06/23 04:04:54;;;;;;;6.87;3.70;;;;;;;14.94;100.00;145926.81;1790512;79;21118;-58
2022/06/23 04:07:44;;;;;;;7.08;3.27;;;;;;;14.92;100.00;145923.02;1797463;78;21868;-57
2022/06/23 04:10:30;;;;;;;8.60;3.65;;;;;;;14.93;100.00;145925.56;1792326;79;21032;-59
2022/06/23 04:13:02;;;;;;;9.08;3.58;;;;;;;14.96;100.00;145931.84;1786156;79;20948;-59
2022/06/23 04:15:37;;;;;;;8.63;3.35;;;;;;;14.98;100.00;145938.14;1791580;79;21502;-58
2022/06/23 04:18:12;;;;;;;5.40;3.35;;;;;;;15.02;100.00;145945.69;1797763;78;21046;-58
2022/06/23 04:20:46;;;;;;;5.50;4.05;;;;;;;15.05;100.00;145954.47;1785827;79;21021;-58
2022/06/23 04:23:18;;;;;;;11.55;4.42;;;;;;;15.09;100.00;145963.31;1791605;78;22103;-58
2022/06/23 04:26:07;;;;;;;6.22;3.52;;;;;;;15.09;100.00;145963.31;1762152;80;21077;-58
2022/06/23 04:28:54;;;;;;;7.08;3.37;;;;;;;15.10;100.00;145965.81;1808626;77;21413;-58
2022/06/23 04:31:34;;;;;;;7.35;3.40;;;;;;;15.11;100.00;145969.61;1801871;79;21035;-59
2022/06/23 04:34:02;;;;;;;5.47;3.17;;;;;;;15.11;100.00;145969.61;1796458;79;21014;-58
2022/06/23 04:36:33;;;;;;;8.03;3.20;;;;;;;15.15;100.00;145978.41;1797917;79;21051;-59
2022/06/23 04:39:05;;;;;;;8.00;3.55;;;;;;;15.20;100.00;145992.23;1791447;79;21036;-59
2022/06/23 04:41:40;;;;;;;5.90;3.58;;;;;;;15.26;100.00;146004.83;1802938;79;21031;-58
2022/06/23 04:44:25;;;;;;;5.25;3.60;;;;;;;15.29;100.00;146013.67;1806744;79;22424;-58
2022/06/23 04:47:10;;;;;;;7.45;3.77;;;;;;;15.33;100.00;146022.47;1799013;79;21121;-58
2022/06/23 04:49:51;;;;;;;8.38;3.62;;;;;;;15.34;100.00;146026.25;1794930;79;21031;-58
2022/06/23 04:52:32;;;;;;;6.42;3.15;;;;;;;15.34;100.00;146026.25;1793658;79;21022;-59
2022/06/23 04:55:12;;;;;;;8.50;3.35;;;;;;;15.35;100.00;146028.75;1778210;80;21069;-58
2022/06/23 04:57:50;;;;;;;6.75;3.50;;;;;;;15.39;100.00;146038.84;1761704;78;21488;-59
2022/06/23 05:00:28;;;;;;;6.97;4.35;;;;;;;15.51;99.04;146066.52;1755457;79;21051;-58
2022/06/23 05:03:06;;;;;;;5.60;3.70;;;;;;;15.51;99.04;146066.52;1756570;79;20988;-58
2022/06/23 05:05:36;;;;;;;7.08;3.55;;;;;;;15.54;99.29;146074.06;1764234;80;21070;-58
2022/06/23 05:08:18;;;;;;;7.37;3.62;;;;;;;15.56;99.13;146079.11;1762220;81;21507;-59
2022/06/23 05:11:05;;;;;;;6.65;3.47;;;;;;;15.58;98.95;146085.41;1759963;80;21011;-58
2022/06/23 05:13:49;;;;;;;7.58;3.80;;;;;;;15.60;98.89;146089.20;1740369;80;21122;-58
2022/06/23 05:16:29;;;;;;;7.08;3.80;;;;;;;15.65;98.32;146101.80;1761692;80;21042;-58
2022/06/23 05:19:00;;;;;;;6.78;3.77;;;;;;;15.72;98.47;146118.19;1778623;79;21077;-59
2022/06/23 05:21:33;;;;;;;5.57;3.50;;;;;;;15.78;98.11;146133.33;1769661;79;21026;-61
2022/06/23 05:24:05;;;;;;;8.55;3.45;;;;;;;15.80;97.93;146139.63;1772731;79;21147;-60
2022/06/23 05:26:44;;;;;;;4.95;3.05;;;;;;;15.83;97.60;146145.91;1788222;79;21770;-59
2022/06/23 05:29:24;;;;;;;10.32;3.92;;;;;;;15.84;97.52;146148.41;1783492;79;21027;-58
2022/06/23 05:31:56;;;;;;;8.23;4.00;;;;;;;15.89;97.16;146161.00;1766576;79;21055;-58
2022/06/23 05:34:27;;;;;;;5.67;3.72;;;;;;;15.96;97.08;146178.66;1757828;80;21044;-58
2022/06/23 05:37:33;;;;;;;6.78;3.80;;;;;;;16.06;96.71;146203.84;1761247;80;21048;-58
2022/06/23 05:40:21;;;;;;;9.90;4.03;;;;;;;16.19;96.55;146235.33;1768559;80;21064;-58
2022/06/23 05:42:51;;;;;;;6.40;3.72;;;;;;;16.19;96.55;146235.33;1781521;79;20982;-58
2022/06/23 05:45:38;;;;;;;9.65;3.92;;;;;;;16.22;95.88;146241.63;1745949;80;21550;-58
2022/06/23 05:48:09;;;;;;;9.68;3.83;;;;;;;16.24;95.80;146247.94;1746802;81;21059;-58
2022/06/23 05:51:08;;;;;;;8.18;3.60;;;;;;;16.22;95.40;146242.88;1765025;81;21608;-58
2022/06/23 05:53:50;;;;;;;7.05;3.15;;;;;;;16.24;95.49;146247.94;1750361;79;21510;-58
2022/06/23 05:56:41;;;;;;;12.47;4.50;;;;;;;16.26;95.13;146251.72;1755178;81;21046;-56
2022/06/23 05:59:22;;;;;;;11.28;3.47;;;;;;;16.39;94.68;146283.22;1791015;79;21118;-58
2022/06/23 06:02:12;;;;;;;6.08;3.60;;;;;;;16.39;94.68;146283.22;1763498;78;21051;-58
2022/06/23 06:04:55;;;;;;;6.65;4.30;;;;;;;16.56;94.62;146326.02;1810349;78;21086;-57
2022/06/23 06:07:36;;;;;;;6.67;3.72;;;;;;;16.83;93.40;146391.62;1803939;78;21035;-58
2022/06/23 06:10:09;;;;;;;11.10;3.70;;;;;;;16.96;92.41;146424.38;1790496;79;21015;-58
2022/06/23 06:12:40;;;;;;;9.20;3.50;;;;;;;17.19;92.00;146479.84;1797719;79;20980;-58
2022/06/23 06:15:20;;;;;;;6.85;3.33;;;;;;;17.37;90.39;146525.22;1790905;79;21035;-57
2022/06/23 06:17:50;;;;;;;9.63;3.70;;;;;;;17.51;90.49;146560.55;1792277;79;21020;-58
2022/06/23 06:20:22;;;;;;;7.70;3.80;;;;;;;17.60;89.09;146581.97;1795728;79;20987;-57
2022/06/23 06:23:06;;;;;;;7.47;3.67;;;;;;;17.61;89.09;146583.27;1795147;79;21050;-57
2022/06/23 06:25:40;;;;;;;5.50;3.27;;;;;;;17.63;88.80;146589.56;1794432;79;21042;-60
2022/06/23 06:28:21;;;;;;;6.12;3.20;;;;;;;17.68;88.87;146600.88;1790046;79;21064;-58
2022/06/23 06:31:00;;;;;;;6.33;3.77;;;;;;;17.76;88.41;146621.09;1787953;79;21000;-57
2022/06/23 06:33:38;;;;;;;7.67;3.67;;;;;;;17.82;88.29;146635.00;1778471;79;21055;-59
2022/06/23 06:36:31;;;;;;;10.05;3.80;;;;;;;17.98;87.91;146676.59;1778440;79;21011;-59
2022/06/23 06:39:11;;;;;;;8.38;4.08;;;;;;;18.12;87.47;146709.44;1788881;79;21513;-59
2022/06/23 06:41:42;;;;;;;9.05;3.35;;;;;;;18.21;86.88;146732.11;1787567;79;21034;-60
2022/06/23 06:44:10;;;;;;;10.63;4.58;;;;;;;18.22;86.46;146734.67;1786689;79;21066;-58
2022/06/23 06:46:39;;;;;;;5.97;3.30;;;;;;;18.19;86.50;146727.06;1789787;79;21018;-59
2022/06/23 06:49:16;;;;;;;9.08;4.20;;;;;;;18.14;86.64;146715.75;1787038;79;21035;-58
2022/06/23 06:51:43;;;;;;;9.78;3.98;;;;;;;18.02;87.15;146684.20;1799058;79;21756;-58
2022/06/23 06:54:39;;;;;;;7.10;3.45;;;;;;;17.96;87.31;146671.59;1783574;79;21308;-59
2022/06/23 06:57:17;;;;;;;10.20;3.87;;;;;;;17.96;87.54;146671.59;1794762;78;21034;-59
2022/06/23 06:59:59;;;;;;;7.90;3.47;;;;;;;18.18;87.00;146724.56;1793309;79;21070;-59
2022/06/23 07:02:34;;;;;;;6.37;3.52;;;;;;;18.40;86.17;146780.08;1796776;78;20999;-59
2022/06/23 07:05:30;;;;;;;5.67;3.55;;;;;;;18.58;85.18;146822.98;1784517;79;21023;-58
2022/06/23 07:08:23;;;;;;;7.95;3.60;;;;;;;18.60;84.86;146829.30;1795753;79;21058;-59
2022/06/23 07:11:04;;;;;;;6.70;3.22;;;;;;;18.56;84.53;146819.19;1794013;79;21020;-59
2022/06/23 07:13:43;;;;;;;8.10;3.33;;;;;;;18.53;84.95;146810.37;1786239;78;21185;-60
2022/06/23 07:16:15;;;;;;;4.75;3.00;;;;;;;18.46;85.16;146792.69;1786559;78;21527;-59
2022/06/23 07:19:04;;;;;;;6.08;3.60;;;;;;;18.41;85.80;146782.58;1797685;78;21030;-59
2022/06/23 07:21:57;;;;;;;10.35;3.80;;;;;;;18.39;86.02;146777.56;1790896;78;21308;-59
2022/06/23 07:24:51;;;;;;;7.78;3.70;;;;;;;18.34;86.42;146764.95;1795330;79;21000;-59
2022/06/23 07:27:26;;;;;;;7.37;3.33;;;;;;;18.27;86.78;146747.28;1797518;79;21066;-59
2022/06/23 07:30:12;;;;;;;6.22;3.55;;;;;;;18.24;87.35;146739.67;1788940;79;21094;-58
2022/06/23 07:32:53;;;;;;;7.30;3.50;;;;;;;18.32;87.27;146759.89;1794760;78;21004;-59
2022/06/23 07:35:35;;;;;;;10.78;3.87;;;;;;;18.40;86.63;146780.08;1787359;79;21011;-59
2022/06/23 07:38:26;;;;;;;7.97;4.25;;;;;;;18.86;85.00;146893.70;1784549;79;21051;-59
2022/06/23 07:41:13;;;;;;;8.33;3.02;;;;;;;19.94;80.82;147160.16;1781030;79;21038;-59
2022/06/23 07:43:57;;;;;;;9.35;3.20;;;;;;;20.76;77.21;147361.09;1798463;78;21496;-59
2022/06/23 07:46:24;;;;;;;7.08;3.20;;;;;;;21.10;73.19;147444.56;1786940;78;21046;-59
2022/06/23 07:48:51;;;;;;;6.95;3.77;;;;;;;21.34;71.74;147505.22;1794817;79;21093;-60
2022/06/23 07:51:18;;;;;;;6.70;3.40;;;;;;;21.61;70.40;147571.05;1790468;79;21074;-59
2022/06/23 07:53:49;;;;;;;5.17;2.92;;;;;;;21.60;69.84;147568.48;1798796;78;21038;-59
2022/06/23 07:56:20;;;;;;;10.03;3.55;;;;;;;21.52;70.06;147548.27;1792379;78;21460;-59
2022/06/23 07:58:53;;;;;;;9.18;3.10;;;;;;;21.31;70.41;147496.38;1786135;78;21078;-59
2022/06/23 08:01:30;;;;;;;5.15;2.90;;;;;;;21.04;70.51;147430.66;1780737;80;21028;-59
2022/06/23 08:04:12;;;;;;;4.85;2.80;;;;;;;20.87;71.80;147388.94;1793435;78;21049;-58
2022/06/23 08:06:39;;;;;;;6.08;3.45;;;;;;;20.85;71.56;147382.61;1795009;78;21080;-59
2022/06/23 08:09:14;;;;;;;8.50;3.12;;;;;;;20.74;71.91;147357.34;1783815;78;21006;-59
2022/06/23 08:14:32;;;;;;;6.75;2.92;;;;;;;20.36;72.18;147263.77;1808474;78;21097;-62
2022/06/23 08:17:04;;;;;;;5.12;3.20;;;;;;;20.16;73.18;147214.48;1815986;78;21035;-59
2022/06/23 08:19:36;;;;;;;8.00;4.30;;;;;;;19.97;74.00;147166.47;1795809;80;21026;-60
2022/06/23 08:22:14;;;;;;;4.78;3.00;;;;;;;19.80;73.73;147123.56;1794963;78;21037;-59
2022/06/23 08:24:48;;;;;;;8.08;3.92;;;;;;;19.70;74.25;147100.81;1802287;78;21039;-59
2022/06/23 08:27:19;;;;;;;6.55;3.65;;;;;;;19.88;73.51;147143.75;1806235;78;20986;-59
2022/06/23 08:29:57;;;;;;;7.35;3.40;;;;;;;20.25;72.96;147236.00;1824029;78;20995;-59
2022/06/23 08:32:24;;;;;;;4.28;2.70;;;;;;;20.48;72.35;147292.84;1790827;78;21070;-59
2022/06/23 08:35:03;;;;;;;5.67;3.37;;;;;;;20.68;71.66;147340.89;1811380;78;21007;-59
2022/06/23 08:37:54;;;;;;;7.85;3.50;;;;;;;20.72;70.69;147352.28;1816831;78;21082;-58
2022/06/23 08:40:35;;;;;;;7.55;3.90;;;;;;;20.59;71.15;147319.42;1826765;78;20998;-59
2022/06/23 08:43:36;;;;;;;7.83;3.20;;;;;;;20.38;71.54;147267.58;1791922;78;21509;-58
2022/06/23 08:46:43;;;;;;;5.70;3.20;;;;;;;20.14;72.38;147209.42;1781221;78;21051;-58
2022/06/23 08:49:31;;;;;;;9.83;3.62;;;;;;;20.02;73.07;147179.09;1808361;78;21014;-59
2022/06/23 08:52:48;;;;;;;5.80;3.37;;;;;;;19.98;72.70;147167.77;1758055;79;21038;-59
2022/06/23 08:55:29;;;;;;;5.65;3.37;;;;;;;20.01;72.27;147176.59;1768314;81;21043;-59
2022/06/23 08:58:19;;;;;;;5.00;3.22;;;;;;;19.92;72.67;147155.12;1779499;79;21012;-58
2022/06/23 09:00:55;;;;;;;7.33;3.50;;;;;;;19.75;73.05;147110.92;1804155;78;21078;-58
2022/06/23 09:04:04;;;;;;;4.45;2.90;;;;;;;19.61;73.88;147076.75;1783394;79;21021;-58
2022/06/23 09:06:54;;;;;;;4.97;3.37;;;;;;;19.52;74.56;147055.31;1831316;77;21108;-58
2022/06/23 09:09:47;;;;;;;5.78;3.33;;;;;;;19.47;75.34;147042.69;1811353;77;20975;-60
2022/06/23 09:12:37;;;;;;;4.62;3.10;;;;;;;19.47;75.25;147042.69;1811538;78;21464;-58
2022/06/23 09:15:26;;;;;;;;;;;;;;;19.60;75.12;147075.50;1818797;77;21076;-59
2022/06/23 09:18:44;;;;;;;4.78;3.10;;;;;;;19.85;74.33;147137.44;1825185;78;20101;-58
2022/06/23 09:21:22;;;;;;;6.53;3.70;;;;;;;20.13;72.80;147206.91;1822174;78;21039;-60
2022/06/23 09:24:27;;;;;;;4.65;3.15;;;;;;;20.42;71.87;147276.41;1783748;79;21013;-59
2022/06/23 09:27:01;;;;;;;4.50;2.85;;;;;;;20.49;71.23;147294.09;1791019;79;21058;-60
2022/06/23 09:30:19;;;;;;;3.98;2.98;;;;;;;20.72;70.13;147352.28;1792101;78;20972;-59
2022/06/23 09:33:06;;;;;;;4.35;2.55;;;;;;;21.08;68.48;147440.75;1783040;78;21184;-59
2022/06/23 09:36:12;;;;;;;7.95;2.67;;;;;;;21.48;66.10;147538.17;1815519;78;21031;-59
2022/06/23 09:39:11;;;;;;;6.45;2.87;;;;;;;21.57;65.40;147560.91;1771196;78;21014;-58
